Time;durP1;ratioP1;P1;durP2;ratioP2;P2;SDS_P1;SDS_P2;PMS_P1;PMS_P2;Temp;Humidity;BMP_temperature;BMP_pressure;BME280_temperature;BME280_humidity;BME280_pressure;Samples;Min_cycle;Max_cycle;Signal;HPM_P1;HPM_P2
2023/04/10 00:03:04;;;;;;;11.30;7.22;;;;;;;10.11;90.26;101972.94;10377932;28;20025;-75
2023/04/10 00:08:05;;;;;;;12.40;9.48;;;;;;;10.12;90.54;101971.09;10378839;28;20034;-76
2023/04/10 00:13:05;;;;;;;16.25;9.75;;;;;;;10.13;90.06;101964.66;10378521;28;20034;-76
2023/04/10 00:18:05;;;;;;;16.17;9.13;;;;;;;10.13;89.38;101959.25;10375665;28;20034;-76
2023/04/10 00:23:06;;;;;;;11.68;8.27;;;;;;;10.16;89.88;101953.50;10376403;28;20482;-75
2023/04/10 00:28:06;;;;;;;11.52;9.07;;;;;;;10.15;88.90;101951.81;10376028;28;20037;-76
2023/04/10 00:33:07;;;;;;;13.30;9.02;;;;;;;10.13;89.07;101951.97;10377150;28;20030;-76
2023/04/10 00:38:07;;;;;;;13.27;9.32;;;;;;;10.17;88.81;101941.66;10376743;28;20082;-75
2023/04/10 00:43:07;;;;;;;11.20;9.27;;;;;;;10.15;88.73;101941.00;10376432;28;20080;-76
2023/04/10 00:48:08;;;;;;;9.93;8.20;;;;;;;10.11;88.82;101929.63;10376060;28;20038;-75
2023/04/10 00:53:08;;;;;;;15.63;9.15;;;;;;;10.06;89.01;101920.34;10375578;28;20465;-76
2023/04/10 00:58:13;;;;;;;10.82;7.95;;;;;;;9.98;89.06;101908.50;10374395;28;20041;-76
2023/04/10 01:03:14;;;;;;;10.07;7.38;;;;;;;9.87;89.37;101906.13;10375439;28;20079;-75
2023/04/10 01:08:46;;;;;;;12.93;9.75;;;;;;;9.68;90.53;101885.66;10392025;28;20069;-76
2023/04/10 01:13:54;;;;;;;9.20;8.20;;;;;;;9.70;90.93;101883.66;10374902;28;20577;-75
2023/04/10 01:18:58;;;;;;;13.70;10.27;;;;;;;9.70;90.98;101880.06;10373841;28;20037;-76
2023/04/10 01:24:10;;;;;;;12.93;8.55;;;;;;;9.65;92.35;101879.75;10374290;28;20445;-75
2023/04/10 01:29:13;;;;;;;11.45;9.15;;;;;;;9.67;92.07;101865.03;10389130;28;20065;-75
2023/04/10 01:34:20;;;;;;;14.45;9.10;;;;;;;9.67;92.72;101869.63;10375043;28;20381;-75
2023/04/10 01:39:20;;;;;;;;;;;;;;;9.65;92.47;101855.41;10390469;28;20054;-76
2023/04/10 01:44:24;;;;;;;13.40;9.55;;;;;;;9.57;92.52;101848.09;10355928;28;20281;-76
2023/04/10 01:49:26;;;;;;;18.90;8.88;;;;;;;9.49;94.57;101843.56;10374276;28;20109;-76
2023/04/10 01:54:27;;;;;;;13.32;10.57;;;;;;;9.46;94.65;101852.00;10373423;28;20038;-75
2023/04/10 01:59:27;;;;;;;13.18;10.15;;;;;;;9.39;95.80;101848.28;10388666;28;20540;-76
2023/04/10 02:04:27;;;;;;;19.45;11.38;;;;;;;9.33;97.31;101846.22;10389386;28;20042;-75
2023/04/10 02:09:35;;;;;;;12.30;9.45;;;;;;;9.34;96.92;101852.47;10389910;28;20030;-76
2023/04/10 02:14:35;;;;;;;11.68;10.45;;;;;;;9.27;97.23;101853.13;10372230;28;20034;-75
2023/04/10 02:19:36;;;;;;;12.40;10.48;;;;;;;9.21;99.08;101845.69;10372955;28;20457;-76
2023/04/10 02:24:36;;;;;;;12.43;10.55;;;;;;;9.19;99.04;101846.88;10373071;28;20524;-75
2023/04/10 02:29:37;;;;;;;13.05;10.75;;;;;;;9.13;100.00;101842.16;10374134;28;20038;-76
2023/04/10 02:34:37;;;;;;;14.75;11.85;;;;;;;9.06;100.00;101848.22;10373623;28;20042;-75
2023/04/10 02:39:37;;;;;;;20.33;11.10;;;;;;;9.03;100.00;101853.94;10374916;28;20482;-75
2023/04/10 02:44:38;;;;;;;11.73;9.48;;;;;;;9.07;100.00;101859.84;10373367;28;20041;-75
2023/04/10 02:49:38;;;;;;;13.88;10.95;;;;;;;9.06;100.00;101858.16;10388596;28;20034;-75
2023/04/10 02:54:39;;;;;;;13.48;11.55;;;;;;;9.03;100.00;101851.25;10373192;28;20496;-76
2023/04/10 02:59:39;;;;;;;13.95;10.70;;;;;;;8.97;100.00;101845.66;10380675;28;20026;-75
2023/04/10 03:04:40;;;;;;;18.77;10.57;;;;;;;8.95;100.00;101829.59;10395781;28;20037;-76
2023/04/10 03:09:40;;;;;;;15.27;11.63;;;;;;;8.94;100.00;101830.59;10381064;28;20049;-75
2023/04/10 03:14:41;;;;;;;13.88;9.75;;;;;;;8.90;100.00;101848.13;10379850;28;20029;-75
2023/04/10 03:19:41;;;;;;;19.88;10.60;;;;;;;8.88;100.00;101844.75;10380223;28;20061;-75
2023/04/10 03:24:41;;;;;;;13.18;10.02;;;;;;;8.84;100.00;101838.84;10378200;28;20042;-76
2023/04/10 03:29:42;;;;;;;14.07;9.68;;;;;;;8.84;100.00;101819.09;10379702;28;20041;-75
2023/04/10 03:34:43;;;;;;;14.25;10.02;;;;;;;8.87;100.00;101802.56;10379542;28;20038;-75
2023/04/10 03:39:43;;;;;;;10.45;8.45;;;;;;;8.90;100.00;101798.66;10379620;28;20100;-75
2023/04/10 03:44:44;;;;;;;18.02;8.35;;;;;;;8.91;100.00;101795.81;10379197;28;20069;-75
2023/04/10 03:49:44;;;;;;;7.65;6.80;;;;;;;8.90;100.00;101794.09;10377794;28;20062;-75
2023/04/10 03:54:44;;;;;;;12.45;9.05;;;;;;;8.98;100.00;101791.44;10360503;28;20131;-75
2023/04/10 03:59:45;;;;;;;12.20;9.68;;;;;;;8.95;100.00;101786.38;10377228;28;20053;-75
2023/04/10 04:04:46;;;;;;;12.15;8.00;;;;;;;9.02;100.00;101787.38;10377696;28;20462;-76
2023/04/10 04:09:47;;;;;;;11.18;8.20;;;;;;;9.04;100.00;101779.13;10374862;28;20037;-75
2023/04/10 04:14:47;;;;;;;9.32;8.02;;;;;;;9.10;100.00;101775.75;10376345;28;20062;-75
2023/04/10 04:19:47;;;;;;;9.00;7.78;;;;;;;9.20;100.00;101770.22;10377201;28;20046;-75
2023/04/10 04:24:48;;;;;;;10.02;8.45;;;;;;;9.25;99.75;101757.00;10393294;28;20049;-75
2023/04/10 04:29:48;;;;;;;16.27;8.50;;;;;;;9.35;98.78;101748.75;10377360;28;20037;-75
2023/04/10 04:34:49;;;;;;;7.88;7.15;;;;;;;9.39;98.04;101747.41;10376060;28;20088;-75
2023/04/10 04:39:49;;;;;;;9.93;8.00;;;;;;;9.42;97.13;101742.50;10376417;28;20056;-75
2023/04/10 04:44:49;;;;;;;8.00;6.97;;;;;;;9.38;96.97;101733.06;10376265;28;20038;-76
2023/04/10 04:49:50;;;;;;;10.05;7.72;;;;;;;9.36;96.37;101732.38;10391331;28;20037;-75
2023/04/10 04:54:50;;;;;;;9.13;7.07;;;;;;;9.34;96.50;101749.75;10374870;28;20030;-75
2023/04/10 04:59:51;;;;;;;9.50;7.75;;;;;;;9.35;95.91;101741.50;10375932;28;20413;-75
2023/04/10 05:04:51;;;;;;;9.02;6.97;;;;;;;9.31;95.57;101740.13;10375385;28;20030;-75
2023/04/10 05:09:52;;;;;;;9.85;6.95;;;;;;;9.32;96.17;101733.72;10376233;28;20386;-75
2023/04/10 05:14:52;;;;;;;13.32;8.35;;;;;;;9.30;95.26;101735.75;10375001;28;20125;-76
2023/04/10 05:19:52;;;;;;;9.57;6.82;;;;;;;9.37;95.42;101736.75;10374566;28;20034;-74
2023/04/10 05:24:54;;;;;;;13.13;7.32;;;;;;;9.38;95.04;101733.06;10375399;28;20041;-74
2023/04/10 05:29:54;;;;;;;6.88;6.20;;;;;;;9.42;94.09;101718.19;10374600;28;20036;-75
2023/04/10 05:34:55;;;;;;;7.72;6.50;;;;;;;9.43;93.09;101727.97;10373119;28;20114;-75
2023/04/10 05:39:55;;;;;;;7.65;6.15;;;;;;;9.49;93.05;101719.19;10373448;28;20062;-75
2023/04/10 05:44:55;;;;;;;11.80;7.68;;;;;;;9.54;92.30;101708.72;10374246;28;20500;-75
2023/04/10 05:49:56;;;;;;;7.38;6.53;;;;;;;9.63;91.26;101705.97;10373695;28;20091;-76
2023/04/10 05:54:56;;;;;;;6.63;5.50;;;;;;;9.70;89.86;101709.69;10372764;28;20069;-75
2023/04/10 05:59:57;;;;;;;7.55;6.85;;;;;;;9.72;88.15;101703.09;10374519;28;20038;-75
2023/04/10 06:04:57;;;;;;;6.72;6.10;;;;;;;9.78;87.38;101696.16;10373257;28;20030;-75
2023/04/10 06:09:58;;;;;;;7.80;7.00;;;;;;;9.86;87.22;101690.72;10357884;28;20065;-75
2023/04/10 06:14:58;;;;;;;8.68;7.05;;;;;;;9.98;86.10;101685.78;10374757;28;20061;-75
2023/04/10 06:20:02;;;;;;;6.43;5.80;;;;;;;10.04;85.05;101679.66;10374691;28;20041;-76
2023/04/10 06:25:02;;;;;;;8.27;6.13;;;;;;;10.08;84.09;101663.91;10372336;28;20052;-75
2023/04/10 06:30:03;;;;;;;9.43;5.72;;;;;;;10.20;83.04;101655.22;10374157;28;20059;-76
2023/04/10 06:35:04;;;;;;;7.60;5.28;;;;;;;10.30;79.82;101646.91;10380760;28;20034;-75
2023/04/10 06:40:08;;;;;;;8.02;6.05;;;;;;;10.48;79.66;101642.09;10380323;28;20073;-75
2023/04/10 06:45:09;;;;;;;10.88;5.97;;;;;;;10.67;78.06;101631.81;10379687;28;20163;-75
2023/04/10 06:50:10;;;;;;;6.72;5.95;;;;;;;10.84;78.28;101641.50;10380838;28;20540;-75
2023/04/10 06:55:14;;;;;;;5.97;5.43;;;;;;;10.93;75.80;101620.59;10379197;28;20054;-76
2023/04/10 07:00:15;;;;;;;9.25;6.57;;;;;;;10.97;75.06;101621.91;10379572;28;20462;-75
2023/04/10 07:05:15;;;;;;;5.97;5.45;;;;;;;10.99;74.49;101617.16;10379208;28;20092;-75
2023/04/10 07:10:16;;;;;;;8.27;6.15;;;;;;;11.07;75.17;101621.66;10381425;28;20038;-77
2023/04/10 07:15:16;;;;;;;8.27;5.90;;;;;;;11.11;75.85;101617.56;10380222;28;20037;-74
2023/04/10 07:20:17;;;;;;;6.45;5.25;;;;;;;11.15;75.72;101599.91;10379480;28;20037;-74
2023/04/10 07:25:17;;;;;;;9.40;6.38;;;;;;;11.14;74.67;101590.94;10380403;28;20135;-74
2023/04/10 07:30:18;;;;;;;8.68;5.75;;;;;;;11.17;73.67;101587.88;10378997;28;20053;-75
2023/04/10 07:35:19;;;;;;;10.80;5.82;;;;;;;11.30;74.66;101580.97;10379082;28;20044;-75
2023/04/10 07:40:19;;;;;;;17.15;6.50;;;;;;;11.27;73.95;101576.75;10377032;28;20049;-77
2023/04/10 07:45:20;;;;;;;9.00;6.70;;;;;;;11.20;74.29;101564.09;10375989;28;20125;-77
2023/04/10 07:50:20;;;;;;;6.93;6.22;;;;;;;11.40;75.32;101562.53;10394682;28;20469;-75
2023/04/10 07:55:21;;;;;;;8.18;5.85;;;;;;;11.24;73.72;101562.72;10379342;28;20144;-76
2023/04/10 08:00:21;;;;;;;9.75;6.85;;;;;;;11.16;75.59;101555.50;10377622;28;20034;-75
2023/04/10 08:05:22;;;;;;;7.80;6.85;;;;;;;11.10;75.55;101532.72;10376384;28;20545;-76
2023/04/10 08:10:22;;;;;;;8.55;7.03;;;;;;;11.23;75.69;101528.50;10377968;28;20041;-76
2023/04/10 08:15:23;;;;;;;8.80;7.22;;;;;;;11.47;75.22;101519.25;10377421;28;20148;-76
2023/04/10 08:20:23;;;;;;;8.57;7.53;;;;;;;11.67;73.96;101520.31;10377565;28;20505;-76
2023/04/10 08:25:23;;;;;;;6.85;6.25;;;;;;;11.75;72.30;101509.38;10377128;28;20041;-76
2023/04/10 08:30:24;;;;;;;6.10;5.32;;;;;;;12.07;71.11;101513.53;10376340;28;20473;-76
2023/04/10 08:35:24;;;;;;;9.00;6.40;;;;;;;12.19;69.71;101515.72;10375342;28;20038;-76
2023/04/10 08:40:25;;;;;;;9.02;5.97;;;;;;;12.57;70.25;101491.84;10376904;28;20568;-75
2023/04/10 08:45:25;;;;;;;9.93;6.35;;;;;;;12.52;66.89;101484.31;10376315;28;20037;-76
2023/04/10 08:50:26;;;;;;;8.00;6.65;;;;;;;12.68;69.01;101482.34;10376197;28;20034;-75
2023/04/10 08:55:26;;;;;;;14.27;6.85;;;;;;;12.80;68.31;101470.72;10376563;28;20446;-76
2023/04/10 09:00:27;;;;;;;6.10;5.13;;;;;;;12.62;67.48;101467.66;10376899;28;20057;-78
2023/04/10 09:05:27;;;;;;;9.07;6.50;;;;;;;12.59;67.92;101457.19;10391989;28;20101;-76
2023/04/10 09:10:28;;;;;;;10.02;6.93;;;;;;;12.72;68.48;101442.84;10375529;28;20125;-77
2023/04/10 09:15:28;;;;;;;7.13;6.43;;;;;;;12.71;68.65;101431.16;10376506;28;20042;-77
2023/04/10 09:20:29;;;;;;;6.72;6.07;;;;;;;12.67;67.53;101420.88;10376934;28;20129;-77
2023/04/10 09:25:37;;;;;;;7.50;5.88;;;;;;;12.44;68.55;101423.84;10373879;28;20034;-78
2023/04/10 09:30:39;;;;;;;7.32;6.47;;;;;;;12.50;69.09;101423.03;10374469;28;20036;-77
2023/04/10 09:35:40;;;;;;;6.70;5.90;;;;;;;12.72;69.47;101408.38;10375300;28;20123;-77
2023/04/10 09:40:40;;;;;;;7.80;6.68;;;;;;;13.06;68.25;101414.00;10373312;28;20386;-75
2023/04/10 09:45:51;;;;;;;7.50;6.00;;;;;;;13.31;66.56;101408.94;10375035;28;20045;-77
2023/04/10 09:50:51;;;;;;;7.25;5.45;;;;;;;13.53;65.82;101385.13;10374889;28;20110;-77
2023/04/10 09:55:52;;;;;;;8.18;7.38;;;;;;;13.72;65.10;101377.03;10375309;28;20486;-77
2023/04/10 10:00:52;;;;;;;8.55;5.75;;;;;;;14.34;64.29;101380.41;10388780;28;20042;-75
2023/04/10 10:05:52;;;;;;;6.53;5.88;;;;;;;14.76;63.02;101385.63;10374877;28;20026;-76
2023/04/10 10:10:53;;;;;;;6.63;5.75;;;;;;;15.22;60.01;101358.19;10382933;28;20033;-77
2023/04/10 10:16:17;;;;;;;5.68;5.20;;;;;;;15.83;60.28;101361.44;10381998;28;20069;-76
2023/04/10 10:21:18;;;;;;;7.18;5.43;;;;;;;15.83;57.23;101342.31;10398243;28;20030;-76
2023/04/10 10:26:19;;;;;;;8.43;5.95;;;;;;;15.39;58.27;101335.84;10379910;28;20030;-77
2023/04/10 10:31:20;;;;;;;6.43;5.78;;;;;;;15.57;57.22;101314.94;10380526;28;20052;-78
2023/04/10 10:36:20;;;;;;;7.65;5.13;;;;;;;15.66;58.04;101296.38;10397409;28;20034;-77
2023/04/10 10:41:37;;;;;;;8.93;5.90;;;;;;;16.41;55.42;101282.72;10362860;28;20050;-75
2023/04/10 10:46:46;;;;;;;;;;;;;;;16.96;52.53;101279.13;10396515;28;20042;-74
2023/04/10 10:51:50;;;;;;;9.23;5.20;;;;;;;17.15;52.72;101280.78;10364038;28;19913;-74
2023/04/10 10:56:50;;;;;;;5.55;5.00;;;;;;;16.94;52.85;101265.72;10362760;28;20033;-73
2023/04/10 11:02:13;;;;;;;7.38;5.93;;;;;;;16.77;53.15;101259.19;10394847;28;20041;-75
2023/04/10 11:07:14;;;;;;;8.52;5.47;;;;;;;16.31;54.01;101240.59;10395858;28;20040;-75
2023/04/10 11:12:15;;;;;;;6.00;4.25;;;;;;;16.28;54.76;101244.59;10395884;28;20079;-77
2023/04/10 11:17:43;;;;;;;8.05;5.63;;;;;;;16.04;55.97;101225.28;10378435;28;20049;-77
2023/04/10 11:23:19;;;;;;;5.00;4.50;;;;;;;16.04;55.92;101228.00;10380058;28;20113;-78
2023/04/10 11:28:32;;;;;;;5.57;5.07;;;;;;;15.54;57.24;101216.28;10382213;28;20038;-77
2023/04/10 11:33:32;;;;;;;10.18;5.25;;;;;;;15.22;58.48;101196.34;10378825;28;20428;-77
2023/04/10 11:38:33;;;;;;;6.05;5.45;;;;;;;14.96;59.24;101178.28;10393998;28;20112;-76
2023/04/10 11:43:34;;;;;;;4.68;4.25;;;;;;;14.86;61.19;101184.22;10377489;28;20038;-77
2023/04/10 11:48:35;;;;;;;5.50;4.70;;;;;;;14.80;62.22;101166.00;10377518;28;20085;-75
2023/04/10 11:53:36;;;;;;;5.78;5.25;;;;;;;14.78;62.59;101159.97;10379339;28;20057;-78
2023/04/10 11:58:38;;;;;;;5.97;5.38;;;;;;;14.83;62.80;101147.31;10377695;28;20124;-78
2023/04/10 12:03:39;;;;;;;5.63;5.13;;;;;;;14.83;63.08;101157.41;10379207;28;20485;-77
2023/04/10 12:08:50;;;;;;;5.22;4.28;;;;;;;14.64;64.86;101159.19;10393926;28;20480;-78
2023/04/10 12:13:52;;;;;;;6.20;5.18;;;;;;;14.37;67.80;101153.84;10377696;28;20053;-77
2023/04/10 12:18:52;;;;;;;5.53;5.03;;;;;;;13.78;77.64;101160.31;10376635;28;20033;-75
2023/04/10 12:23:53;;;;;;;7.05;5.75;;;;;;;13.37;84.27;101139.66;10376732;28;20458;-75
2023/04/10 12:28:54;;;;;;;12.48;5.65;;;;;;;13.10;89.68;101141.50;10392233;28;20112;-75
2023/04/10 12:33:57;;;;;;;8.27;5.85;;;;;;;12.89;95.96;101138.94;10376947;28;20038;-75
2023/04/10 12:38:59;;;;;;;7.80;4.70;;;;;;;12.71;100.00;101137.69;10391287;28;20049;-74
2023/04/10 12:44:25;;;;;;;9.75;6.57;;;;;;;12.39;100.00;101117.53;10375387;28;20500;-75
2023/04/10 12:49:26;;;;;;;7.38;6.63;;;;;;;12.16;100.00;101098.03;10377228;28;20120;-73
2023/04/10 12:54:34;;;;;;;11.50;7.65;;;;;;;12.09;100.00;101084.41;10374112;28;20553;-72
2023/04/10 12:59:34;;;;;;;10.45;8.20;;;;;;;11.97;100.00;101080.63;10375804;28;20037;-72
2023/04/10 13:04:35;;;;;;;9.95;7.07;;;;;;;11.70;100.00;101076.91;10375947;28;20459;-75
2023/04/10 13:09:36;;;;;;;9.20;6.93;;;;;;;11.67;100.00;101075.41;10375922;28;20029;-75
2023/04/10 13:14:36;;;;;;;12.68;8.13;;;;;;;11.70;100.00;101064.16;10375435;28;20470;-74
2023/04/10 13:19:37;;;;;;;9.20;6.13;;;;;;;11.61;100.00;101068.09;10376844;28;20374;-76
2023/04/10 13:24:37;;;;;;;10.68;8.65;;;;;;;11.67;100.00;101056.44;10379241;28;20506;-77
2023/04/10 13:29:41;;;;;;;12.02;6.53;;;;;;;11.65;100.00;101039.53;10373749;28;20049;-73
2023/04/10 13:34:41;;;;;;;11.65;6.25;;;;;;;11.63;100.00;101038.91;10373522;28;20108;-76
2023/04/10 13:39:42;;;;;;;11.60;7.55;;;;;;;11.70;100.00;101023.47;10356843;28;20072;-75
2023/04/10 13:44:42;;;;;;;10.40;7.65;;;;;;;11.63;100.00;101018.03;10373762;28;20034;-76
2023/04/10 13:49:43;;;;;;;10.07;6.47;;;;;;;11.46;100.00;101040.28;10389518;28;20065;-77
2023/04/10 13:54:43;;;;;;;10.82;6.40;;;;;;;11.05;100.00;101022.06;10374297;28;20038;-77
2023/04/10 13:59:44;;;;;;;6.68;5.40;;;;;;;10.87;100.00;101007.13;10374592;28;20065;-78
2023/04/10 14:04:45;;;;;;;6.85;4.85;;;;;;;10.82;100.00;100987.09;10375082;28;20038;-77
2023/04/10 14:09:46;;;;;;;8.00;6.85;;;;;;;10.90;100.00;100979.66;10377209;28;20092;-78
2023/04/10 14:14:46;;;;;;;9.80;6.95;;;;;;;10.90;100.00;100959.84;10374332;28;20095;-78
2023/04/10 14:19:50;;;;;;;9.02;6.70;;;;;;;10.90;100.00;100955.25;10376724;28;20450;-79
2023/04/10 14:24:50;;;;;;;7.93;5.55;;;;;;;10.90;100.00;100968.81;10377161;28;20049;-79
2023/04/10 14:29:51;;;;;;;7.32;5.90;;;;;;;10.85;100.00;100984.00;10375552;28;20049;-76
2023/04/10 14:34:51;;;;;;;7.95;5.30;;;;;;;10.79;100.00;100968.53;10373511;28;20057;-76
2023/04/10 14:39:51;;;;;;;11.93;6.40;;;;;;;10.85;100.00;100957.75;10373876;28;20502;-76
2023/04/10 14:44:52;;;;;;;7.85;7.05;;;;;;;10.77;100.00;100948.94;10374283;28;20137;-76
2023/04/10 14:49:52;;;;;;;13.80;7.15;;;;;;;10.71;100.00;100958.66;10371797;28;20478;-76
2023/04/10 14:54:53;;;;;;;2.03;2.03;;;;;;;10.66;100.00;100964.69;10378954;28;20030;-76
2023/04/10 14:59:53;;;;;;;0.20;0.20;;;;;;;10.79;100.00;100958.53;10380837;28;20104;-76
2023/04/10 15:04:53;;;;;;;2.25;2.15;;;;;;;10.85;100.00;100962.34;10380291;28;20109;-76
2023/04/10 15:09:57;;;;;;;13.48;10.00;;;;;;;10.71;100.00;100951.38;10379435;28;20474;-78
2023/04/10 15:14:57;;;;;;;12.18;10.15;;;;;;;10.91;100.00;100956.97;10378455;28;20069;-77
2023/04/10 15:19:58;;;;;;;13.02;9.57;;;;;;;10.81;100.00;100955.63;10379018;28;20069;-76
2023/04/10 15:24:58;;;;;;;0.85;0.85;;;;;;;10.94;100.00;100944.88;10377763;28;20057;-77
2023/04/10 15:29:59;;;;;;;1.67;1.58;;;;;;;10.86;100.00;100926.06;10377553;28;20045;-77
2023/04/10 15:34:59;;;;;;;0.40;0.40;;;;;;;11.01;100.00;100915.09;10379360;28;20080;-77
2023/04/10 15:40:00;;;;;;;0.52;0.52;;;;;;;11.03;100.00;100911.16;10379188;28;20140;-77
2023/04/10 15:45:01;;;;;;;0.93;0.93;;;;;;;11.03;100.00;100903.03;10394133;28;20116;-78
2023/04/10 15:50:01;;;;;;;0.90;0.90;;;;;;;11.05;100.00;100903.66;10378313;28;20082;-77
2023/04/10 15:55:01;;;;;;;1.23;1.17;;;;;;;10.92;100.00;100885.47;10377405;28;20129;-76
2023/04/10 16:00:03;;;;;;;0.85;0.85;;;;;;;10.98;100.00;100845.06;10376856;28;20038;-76
2023/04/10 16:05:05;;;;;;;0.77;0.77;;;;;;;10.96;100.00;100834.41;10375535;28;20044;-77
2023/04/10 16:10:08;;;;;;;0.57;0.55;;;;;;;11.06;100.00;100850.31;10378342;28;20454;-76
2023/04/10 16:15:08;;;;;;;0.20;0.20;;;;;;;11.13;100.00;100821.34;10377902;28;20473;-75
2023/04/10 16:20:09;;;;;;;0.30;0.30;;;;;;;11.06;100.00;100851.13;10377255;28;20037;-75
2023/04/10 16:25:10;;;;;;;0.57;0.57;;;;;;;10.99;100.00;100871.13;10377023;28;20044;-75
2023/04/10 16:30:10;;;;;;;0.38;0.38;;;;;;;11.05;100.00;100881.16;10375514;28;20470;-75
2023/04/10 16:35:11;;;;;;;0.30;0.30;;;;;;;10.89;100.00;100866.91;10376029;28;20033;-75
2023/04/10 16:40:11;;;;;;;0.28;0.28;;;;;;;10.92;100.00;100874.63;10375705;28;20410;-75
2023/04/10 16:45:12;;;;;;;0.40;0.40;;;;;;;11.13;100.00;100864.72;10376902;28;20120;-75
2023/04/10 16:50:12;;;;;;;0.30;0.30;;;;;;;11.01;100.00;100864.47;10374963;28;20124;-76
2023/04/10 16:55:13;;;;;;;0.30;0.30;;;;;;;10.91;100.00;100845.88;10391394;28;20096;-76
2023/04/10 17:00:13;;;;;;;0.70;0.70;;;;;;;10.93;100.00;100834.81;10375745;28;20033;-75
2023/04/10 17:05:14;;;;;;;2.28;2.22;;;;;;;10.84;100.00;100809.78;10391023;28;20045;-75
2023/04/10 17:10:14;;;;;;;0.77;0.77;;;;;;;10.85;100.00;100816.06;10376607;28;20042;-76
2023/04/10 17:15:15;;;;;;;0.30;0.30;;;;;;;10.93;100.00;100813.16;10390054;28;20029;-76
2023/04/10 17:20:16;;;;;;;0.35;0.35;;;;;;;10.91;100.00;100805.25;10373778;28;20133;-76
2023/04/10 17:25:16;;;;;;;0.30;0.30;;;;;;;10.85;100.00;100797.91;10373819;28;20033;-75
2023/04/10 17:30:17;;;;;;;0.93;0.85;;;;;;;10.83;100.00;100797.28;10389858;28;20041;-76
2023/04/10 17:35:17;;;;;;;0.50;0.50;;;;;;;10.90;100.00;100806.25;10374867;28;20066;-76
2023/04/10 17:40:18;;;;;;;1.48;1.38;;;;;;;10.77;100.00;100798.06;10391473;28;20078;-76
2023/04/10 17:45:18;;;;;;;4.03;3.00;;;;;;;10.68;100.00;100810.94;10390244;28;20069;-76
2023/04/10 17:50:19;;;;;;;4.45;2.63;;;;;;;10.69;100.00;100807.22;10388968;28;20049;-76
2023/04/10 17:55:19;;;;;;;3.95;2.60;;;;;;;10.88;100.00;100799.34;10390355;28;20107;-77
2023/04/10 18:00:20;;;;;;;2.95;2.20;;;;;;;10.76;100.00;100779.34;10373470;28;20033;-77
2023/04/10 18:05:20;;;;;;;6.35;3.20;;;;;;;10.72;100.00;100781.63;10373357;28;20474;-76
2023/04/10 18:10:21;;;;;;;12.23;3.03;;;;;;;10.77;100.00;100799.94;10372541;28;20477;-77
2023/04/10 18:15:21;;;;;;;8.23;4.13;;;;;;;10.81;100.00;100810.16;10372359;28;20030;-77
2023/04/10 18:20:21;;;;;;;19.33;4.22;;;;;;;10.78;100.00;100791.63;10372618;28;20034;-78
2023/04/10 18:25:22;;;;;;;7.90;4.43;;;;;;;10.62;100.00;100781.94;10389522;28;20528;-77
2023/04/10 18:30:22;;;;;;;6.45;2.88;;;;;;;10.59;100.00;100776.09;10380532;28;20068;-77
2023/04/10 18:35:23;;;;;;;13.20;3.83;;;;;;;10.45;100.00;100777.91;10381933;28;20566;-77
2023/04/10 18:40:24;;;;;;;8.38;3.70;;;;;;;10.36;100.00;100779.94;10395732;28;20074;-77
2023/04/10 18:45:24;;;;;;;8.82;3.88;;;;;;;10.19;100.00;100771.28;10382222;28;20369;-77
2023/04/10 18:50:25;;;;;;;7.65;3.00;;;;;;;10.19;100.00;100786.69;10380973;28;20076;-77
2023/04/10 18:55:25;;;;;;;12.00;3.40;;;;;;;10.09;100.00;100797.84;10379340;28;20029;-77
2023/04/10 19:00:26;;;;;;;9.38;3.72;;;;;;;10.07;100.00;100793.66;10383562;28;20049;-77
2023/04/10 19:05:31;;;;;;;7.10;3.78;;;;;;;10.04;100.00;100786.78;10395955;28;20068;-77
2023/04/10 19:10:31;;;;;;;4.55;3.55;;;;;;;9.94;100.00;100776.28;10380317;28;20553;-77
2023/04/10 19:15:32;;;;;;;10.55;4.18;;;;;;;9.81;100.00;100762.69;10378556;28;20117;-78
2023/04/10 19:20:32;;;;;;;5.10;2.78;;;;;;;9.76;100.00;100768.69;10379261;28;20045;-77
2023/04/10 19:25:32;;;;;;;15.57;4.45;;;;;;;9.73;100.00;100768.22;10362707;28;20540;-76
2023/04/10 19:30:33;;;;;;;14.52;6.13;;;;;;;9.79;100.00;100778.25;10378166;28;20036;-77
2023/04/10 19:35:33;;;;;;;10.20;5.18;;;;;;;9.84;100.00;100770.41;10380947;28;20049;-77
2023/04/10 19:40:34;;;;;;;11.52;5.15;;;;;;;9.91;100.00;100778.56;10378130;28;20078;-76
2023/04/10 19:45:35;;;;;;;9.98;4.63;;;;;;;10.02;100.00;100784.28;10377716;28;20038;-77
2023/04/10 19:50:36;;;;;;;8.55;4.85;;;;;;;10.17;100.00;100786.88;10393839;28;20030;-76
2023/04/10 19:55:38;;;;;;;13.60;5.05;;;;;;;10.27;100.00;100775.72;10377459;28;20382;-77
2023/04/10 20:00:39;;;;;;;8.20;5.05;;;;;;;10.24;100.00;100768.81;10377927;28;20088;-76
2023/04/10 20:05:39;;;;;;;14.45;4.45;;;;;;;10.26;100.00;100763.22;10377929;28;20437;-76
2023/04/10 20:10:40;;;;;;;5.30;3.03;;;;;;;10.06;100.00;100743.31;10360079;28;20157;-75
2023/04/10 20:15:40;;;;;;;18.67;4.68;;;;;;;9.92;100.00;100750.47;10392982;28;20429;-77
2023/04/10 20:20:42;;;;;;;9.43;3.70;;;;;;;9.91;100.00;100759.63;10378340;28;20042;-76
2023/04/10 20:25:42;;;;;;;22.23;6.40;;;;;;;10.04;100.00;100758.88;10376577;28;20033;-76
2023/04/10 20:30:43;;;;;;;17.63;5.80;;;;;;;9.97;100.00;100738.03;10376756;28;20041;-76
2023/04/10 20:35:43;;;;;;;15.65;7.45;;;;;;;9.87;100.00;100721.31;10376513;28;20454;-75
2023/04/10 20:40:44;;;;;;;8.60;5.22;;;;;;;9.72;100.00;100743.03;10376698;28;20065;-75
2023/04/10 20:45:44;;;;;;;27.02;6.80;;;;;;;9.87;100.00;100731.31;10359262;28;20034;-76
2023/04/10 20:50:45;;;;;;;21.40;5.28;;;;;;;9.99;100.00;100733.28;10392256;28;20469;-75
2023/04/10 20:55:49;;;;;;;12.70;3.97;;;;;;;10.08;100.00;100735.81;10391338;28;20094;-75
2023/04/10 21:00:51;;;;;;;15.70;5.68;;;;;;;10.11;100.00;100730.00;10357680;28;20033;-75
2023/04/10 21:05:52;;;;;;;22.50;6.35;;;;;;;10.15;100.00;100718.59;10376290;28;20021;-74
2023/04/10 21:10:55;;;;;;;26.67;8.30;;;;;;;10.23;100.00;100739.22;10375269;28;20087;-75
2023/04/10 21:15:55;;;;;;;11.40;6.07;;;;;;;10.22;100.00;100745.69;10377401;28;20033;-75
2023/04/10 21:20:55;;;;;;;19.95;6.45;;;;;;;10.11;100.00;100749.78;10375426;28;20061;-75
2023/04/10 21:25:56;;;;;;;32.67;8.43;;;;;;;9.74;100.00;100786.97;10391416;28;20038;-73
2023/04/10 21:30:56;;;;;;;9.95;3.70;;;;;;;9.18;100.00;100794.91;10373940;28;20125;-73
2023/04/10 21:35:57;;;;;;;16.25;3.88;;;;;;;8.76;100.00;100795.66;10372932;28;20038;-73
2023/04/10 21:40:57;;;;;;;7.65;3.67;;;;;;;8.50;100.00;100788.91;10374407;28;20089;-73
2023/04/10 21:45:58;;;;;;;19.92;3.90;;;;;;;8.36;100.00;100763.56;10387619;28;20061;-73
2023/04/10 21:50:58;;;;;;;15.60;3.58;;;;;;;8.24;100.00;100748.03;10372725;28;20033;-74
2023/04/10 21:56:00;;;;;;;12.95;3.53;;;;;;;8.18;100.00;100751.47;10371150;28;20040;-74
2023/04/10 22:01:01;;;;;;;7.93;2.60;;;;;;;8.16;100.00;100768.66;10386958;28;20046;-74
2023/04/10 22:06:01;;;;;;;6.50;3.08;;;;;;;8.18;100.00;100764.97;10387234;28;20033;-74
2023/04/10 22:11:02;;;;;;;18.05;5.72;;;;;;;8.14;100.00;100764.50;10370584;28;20478;-74
2023/04/10 22:16:04;;;;;;;22.92;5.30;;;;;;;8.00;100.00;100768.84;10370346;28;20049;-74
2023/04/10 22:21:05;;;;;;;18.33;4.88;;;;;;;7.84;100.00;100777.91;10371291;28;20140;-74
2023/04/10 22:26:08;;;;;;;14.27;5.07;;;;;;;7.74;100.00;100779.19;10387083;28;20062;-74
2023/04/10 22:31:16;;;;;;;23.58;7.28;;;;;;;7.80;100.00;100784.69;10386840;28;20061;-74
2023/04/10 22:36:19;;;;;;;14.35;3.97;;;;;;;7.75;100.00;100780.88;10387145;28;20397;-74
2023/04/10 22:41:19;;;;;;;23.73;3.67;;;;;;;7.77;100.00;100778.84;10324190;28;1389176;-74
2023/04/10 22:46:30;;;;;;;11.13;4.72;;;;;;;7.76;100.00;100786.09;10373742;28;20137;-74
2023/04/10 22:51:31;;;;;;;10.95;2.88;;;;;;;7.66;100.00;100780.13;10374972;28;20092;-74
2023/04/10 22:56:32;;;;;;;13.00;3.47;;;;;;;7.60;100.00;100784.38;10371842;28;20038;-74